Portada
METAR-TAF:

METAR-TAF

Aeroports :

Tamworth, Austràlia

latitud: 31-05S, longitud: 150-50E, altitud: 410 m

Observació

L'informe es va fer fa 40 minuts, a les 13:30 UTC
Vent 5 kt del Nord
Temperatura 6°C
Humitat 81%
Pressió 1018 hPa
Visibilitat 10 km o més

METAR: YSTW 271330Z AUTO 35005KT 9999 // NCD 06/03 Q1018 RF00.0/000.0

Hora: 00:10 (14:10 UTC)

Pronòstic

L'informe es va fer fa 3 hores i 17 minuts, a les 10:53 UTC
Pronòstic vàlid del 27 a les 12 UTC al 28 a les 06 UTC
Vent 8 kt del Oest
Visibilitat 10 km o més
sense núvols per sota de 1500 mi sense presència de cumulonimbus.
A partir de les 28 a les 0100 UTC
Vent 12 kt del Oest/Nord-Oest
Visibilitat 10 km o més
sense núvols per sota de 1500 mi sense presència de cumulonimbus.

TAF: YSTW 271053Z 2712/2806 26008KT CAVOK FM280100 29012KT CAVOK

Observacions i pronòstics meteorològics de més de 4000 aeroports (METAR i TAF).

Les estacions disponibles són els punts grocs i vermells al mapa.

Posi el ratolí al punt desitjat per veure el nom de l'estació.

Feu clic per veure les observacions i els pronòstics meteorològics.

Per canviar el mapa: feu clic els botons verds amb una creu de color negre per apropar; al botó verd amb un guió per allunyar la imatge; o en les fletxes verdes per a mapes adjacents.


METAR-TAF: